Time;durP1;ratioP1;P1;durP2;ratioP2;P2;SDS_P1;SDS_P2;PMS_P1;PMS_P2;Temp;Humidity;BMP_temperature;BMP_pressure;BME280_temperature;BME280_humidity;BME280_pressure;Samples;Min_cycle;Max_cycle;Signal;HPM_P1;HPM_P2
2022/04/19 00:00:53;;;;;;;6.03;3.65;;;11.40;96.60;;;;;;5094098;28;20056;-36
2022/04/19 00:03:20;;;;;;;6.85;4.40;;;11.40;96.80;;;;;;5093291;28;20464;-34
2022/04/19 00:05:46;;;;;;;6.70;4.47;;;11.40;97.00;;;;;;5087268;28;20507;-37
2022/04/19 00:08:13;;;;;;;6.93;4.32;;;11.30;97.00;;;;;;5086582;28;20028;-36
2022/04/19 00:10:43;;;;;;;5.55;3.75;;;11.30;97.00;;;;;;5091915;28;20028;-37
2022/04/19 00:13:11;;;;;;;10.10;4.82;;;11.30;97.20;;;;;;5095362;28;20476;-36
2022/04/19 00:15:38;;;;;;;6.20;3.88;;;11.30;97.30;;;;;;5094896;28;20019;-37
2022/04/19 00:18:06;;;;;;;7.57;4.90;;;11.20;97.30;;;;;;5096098;28;20031;-37
2022/04/19 00:20:33;;;;;;;6.70;3.85;;;11.20;97.60;;;;;;5092953;28;20495;-36
2022/04/19 00:22:59;;;;;;;7.72;4.57;;;11.20;97.60;;;;;;5094963;28;20066;-37
2022/04/19 00:25:25;;;;;;;5.93;4.28;;;11.10;97.60;;;;;;5093352;28;20145;-37
2022/04/19 00:27:51;;;;;;;6.97;4.50;;;11.10;97.70;;;;;;5092304;28;20427;-36
2022/04/19 00:30:16;;;;;;;6.03;4.68;;;11.10;97.80;;;;;;5095696;28;20097;-37
2022/04/19 00:32:42;;;;;;;5.10;3.92;;;11.10;97.80;;;;;;5101436;28;20034;-36
2022/04/19 00:35:10;;;;;;;4.53;3.83;;;11.00;97.90;;;;;;5095974;28;20502;-35
2022/04/19 00:37:37;;;;;;;8.88;5.28;;;11.00;98.00;;;;;;5097471;28;20028;-36
2022/04/19 00:40:07;;;;;;;6.97;4.88;;;11.00;98.20;;;;;;5093712;28;20713;-37
2022/04/19 00:42:34;;;;;;;5.28;4.05;;;11.00;98.40;;;;;;5094673;28;20028;-37
2022/04/19 00:45:03;;;;;;;7.40;4.70;;;11.00;98.60;;;;;;5093255;28;20499;-37
2022/04/19 00:47:32;;;;;;;7.10;4.68;;;11.00;98.70;;;;;;5076329;28;20108;-37
2022/04/19 00:49:58;;;;;;;4.57;3.80;;;10.90;98.70;;;;;;5092994;28;20032;-36
2022/04/19 00:52:24;;;;;;;7.15;4.60;;;10.90;98.70;;;;;;5095866;28;20017;-36
2022/04/19 00:54:50;;;;;;;7.18;5.13;;;10.90;98.80;;;;;;5093711;28;20069;-35
2022/04/19 00:57:16;;;;;;;7.20;4.80;;;10.90;98.90;;;;;;5094121;28;20502;-37
2022/04/19 00:59:44;;;;;;;8.52;4.45;;;11.00;99.10;;;;;;5091070;28;20468;-39
2022/04/19 01:02:10;;;;;;;7.93;4.50;;;10.90;99.10;;;;;;5086454;28;20034;-37
2022/04/19 01:04:35;;;;;;;8.00;5.53;;;10.90;99.30;;;;;;5097295;28;20028;-37
2022/04/19 01:07:01;;;;;;;6.40;4.10;;;10.90;99.40;;;;;;5095356;28;20024;-38
2022/04/19 01:09:27;;;;;;;7.43;4.88;;;10.80;99.60;;;;;;5093457;28;20531;-41
2022/04/19 01:14:39;;;;;;;6.03;4.55;;;10.70;99.90;;;;;;5094724;28;20055;-37
2022/04/19 01:17:08;;;;;;;7.07;5.07;;;10.80;99.90;;;;;;5092961;28;20387;-34
2022/04/19 01:19:38;;;;;;;6.78;4.90;;;10.80;99.90;;;;;;5092882;28;20024;-36
2022/04/19 01:22:05;;;;;;;6.57;4.75;;;10.70;99.90;;;;;;5093774;28;20024;-37
2022/04/19 01:24:30;;;;;;;7.95;5.07;;;10.70;99.90;;;;;;5094595;28;20055;-36
2022/04/19 01:26:57;;;;;;;5.65;4.57;;;10.70;99.90;;;;;;5101442;28;20023;-35
2022/04/19 01:29:24;;;;;;;7.22;4.85;;;10.70;99.90;;;;;;5091886;28;20063;-36
2022/04/19 01:31:51;;;;;;;6.18;4.70;;;10.60;99.90;;;;;;5093653;28;20063;-35
2022/04/19 01:34:20;;;;;;;6.03;4.75;;;10.60;99.90;;;;;;5097933;28;20556;-37
2022/04/19 01:36:46;;;;;;;8.18;4.70;;;10.60;99.90;;;;;;5091880;28;20546;-37
2022/04/19 01:39:12;;;;;;;8.07;5.05;;;10.50;99.90;;;;;;5097892;28;20024;-35
2022/04/19 01:41:39;;;;;;;8.20;4.93;;;10.50;99.90;;;;;;5093429;28;20093;-36
2022/04/19 01:44:06;;;;;;;10.75;5.47;;;10.50;99.90;;;;;;5093412;28;20085;-39
2022/04/19 01:46:32;;;;;;;8.13;4.00;;;10.40;99.90;;;;;;5090986;28;20102;-34
2022/04/19 01:48:58;;;;;;;7.90;5.13;;;10.40;99.90;;;;;;5098538;28;20023;-35
2022/04/19 01:51:25;;;;;;;10.23;5.07;;;10.40;99.90;;;;;;5093424;28;20495;-36
2022/04/19 01:53:51;;;;;;;9.07;4.55;;;10.30;99.90;;;;;;5093490;28;20102;-36
2022/04/19 01:56:17;;;;;;;8.60;5.30;;;10.30;99.90;;;;;;5093573;28;20373;-38
2022/04/19 01:58:44;;;;;;;7.22;5.10;;;10.30;99.90;;;;;;5092016;28;20100;-37
2022/04/19 02:01:09;;;;;;;9.25;4.82;;;10.30;99.90;;;;;;5089614;28;20356;-39
2022/04/19 02:03:35;;;;;;;6.30;4.75;;;10.20;99.90;;;;;;5079852;28;20035;-44
2022/04/19 02:06:05;;;;;;;7.50;5.30;;;10.20;99.90;;;;;;5090431;28;20476;-37
2022/04/19 02:08:31;;;;;;;6.72;4.90;;;10.20;99.90;;;;;;5093870;28;20028;-37
2022/04/19 02:10:57;;;;;;;10.27;4.60;;;10.20;99.90;;;;;;5092417;28;20028;-37
2022/04/19 02:13:22;;;;;;;7.93;5.43;;;10.10;99.90;;;;;;5092357;28;20458;-31
2022/04/19 02:15:48;;;;;;;11.25;5.38;;;10.10;99.90;;;;;;5092373;28;20038;-37
2022/04/19 02:18:14;;;;;;;10.68;5.53;;;10.10;99.90;;;;;;5092780;28;20460;-36
2022/04/19 02:20:39;;;;;;;9.20;5.63;;;10.10;99.90;;;;;;5088785;28;20039;-37
2022/04/19 02:23:05;;;;;;;8.25;5.10;;;10.00;99.90;;;;;;5091682;28;20032;-37
2022/04/19 02:25:31;;;;;;;12.90;6.03;;;10.00;99.90;;;;;;5093411;28;20035;-37
2022/04/19 02:27:56;;;;;;;7.90;5.10;;;10.00;99.90;;;;;;5102243;28;20031;-37
2022/04/19 02:30:22;;;;;;;10.88;5.00;;;10.00;99.90;;;;;;5091565;28;20528;-36
2022/04/19 02:32:50;;;;;;;7.13;4.47;;;10.00;99.90;;;;;;5092270;28;20380;-38
2022/04/19 02:35:18;;;;;;;7.45;5.32;;;10.00;99.90;;;;;;5091170;28;20032;-36
2022/04/19 02:37:55;;;;;;;6.32;4.85;;;10.00;99.90;;;;;;5092854;28;20525;-36
2022/04/19 02:40:22;;;;;;;8.93;5.50;;;10.00;99.90;;;;;;5091196;28;20480;-36
2022/04/19 02:42:49;;;;;;;8.68;5.13;;;10.00;99.90;;;;;;5090721;28;20119;-37
2022/04/19 02:45:16;;;;;;;8.35;5.10;;;10.00;99.90;;;;;;5091241;28;20567;-37
2022/04/19 02:47:42;;;;;;;7.53;5.22;;;10.00;99.90;;;;;;5100329;28;20023;-37
2022/04/19 02:50:08;;;;;;;7.60;5.15;;;9.90;99.90;;;;;;5092704;28;20027;-33
2022/04/19 02:52:34;;;;;;;7.15;4.95;;;9.90;99.90;;;;;;5092217;28;20031;-36
2022/04/19 02:55:00;;;;;;;8.30;5.40;;;9.90;99.90;;;;;;5090527;28;20020;-37
2022/04/19 02:57:26;;;;;;;7.88;5.25;;;9.90;99.90;;;;;;5094580;28;20124;-36
2022/04/19 02:59:53;;;;;;;7.85;5.32;;;10.00;99.90;;;;;;5089277;28;20040;-35
2022/04/19 03:02:19;;;;;;;8.68;5.38;;;9.90;99.90;;;;;;5091049;28;20431;-37
2022/04/19 03:04:45;;;;;;;10.82;5.43;;;9.90;99.90;;;;;;5091221;28;20408;-38
2022/04/19 03:07:14;;;;;;;9.43;4.95;;;9.80;99.90;;;;;;5092028;28;20028;-37
2022/04/19 03:09:40;;;;;;;9.43;5.32;;;9.80;99.90;;;;;;5092662;28;20052;-37
2022/04/19 03:12:07;;;;;;;7.22;4.70;;;9.70;99.90;;;;;;5091892;28;20024;-37
2022/04/19 03:14:35;;;;;;;7.55;4.40;;;9.60;99.90;;;;;;5092478;28;20028;-37
2022/04/19 03:17:00;;;;;;;11.93;6.55;;;9.60;99.90;;;;;;5091065;28;20506;-35
2022/04/19 03:19:26;;;;;;;9.85;5.32;;;9.60;99.90;;;;;;5111895;28;20020;-37
2022/04/19 03:21:52;;;;;;;9.57;4.93;;;9.50;99.90;;;;;;5090300;28;20028;-35
2022/04/19 03:29:46;;;;;;;6.97;4.82;;;9.40;99.90;;;;;;5080028;28;20063;-42
2022/04/19 03:32:11;;;;;;;9.80;5.47;;;9.40;99.90;;;;;;5089589;28;20036;-35
2022/04/19 03:34:39;;;;;;;10.27;5.40;;;9.40;99.90;;;;;;5090417;28;20047;-37
2022/04/19 03:37:05;;;;;;;7.07;4.82;;;9.40;99.90;;;;;;5091604;28;20440;-35
2022/04/19 03:39:31;;;;;;;7.63;5.05;;;9.30;99.90;;;;;;5093301;28;20407;-35
2022/04/19 03:41:57;;;;;;;11.52;5.55;;;9.30;99.90;;;;;;5090501;28;20032;-37
2022/04/19 03:44:25;;;;;;;9.80;4.97;;;9.30;99.90;;;;;;5092054;28;20427;-35
2022/04/19 03:47:09;;;;;;;8.65;5.07;;;9.20;99.90;;;;;;5092011;28;20491;-36
2022/04/19 03:49:39;;;;;;;7.80;4.72;;;9.20;99.90;;;;;;5072624;28;20396;-37
2022/04/19 03:52:06;;;;;;;7.07;5.00;;;9.30;99.90;;;;;;5083488;28;20480;-37
2022/04/19 03:54:34;;;;;;;11.80;5.55;;;9.20;99.90;;;;;;5092181;28;20567;-37
2022/04/19 03:57:01;;;;;;;8.15;4.90;;;9.20;99.90;;;;;;5091453;28;20480;-36
2022/04/19 03:59:54;;;;;;;7.82;5.55;;;9.10;99.90;;;;;;5093228;28;20016;-37
2022/04/19 04:02:20;;;;;;;7.13;5.30;;;9.10;99.90;;;;;;5099451;28;20475;-36
2022/04/19 04:04:45;;;;;;;9.95;5.53;;;9.10;99.90;;;;;;5094971;28;20140;-37
2022/04/19 04:07:12;;;;;;;9.50;5.85;;;9.00;99.90;;;;;;5093469;28;20484;-35
2022/04/19 04:09:38;;;;;;;9.65;5.75;;;9.00;99.90;;;;;;5096661;28;20609;-36
2022/04/19 04:12:14;;;;;;;9.07;5.07;;;9.00;99.90;;;;;;5096464;28;20111;-37
2022/04/19 04:14:41;;;;;;;11.30;5.57;;;8.90;99.90;;;;;;5094807;28;20456;-37
2022/04/19 04:17:07;;;;;;;9.97;5.90;;;8.90;99.90;;;;;;5094049;28;20491;-35
2022/04/19 04:19:33;;;;;;;13.95;5.45;;;8.90;99.90;;;;;;5094730;28;20028;-39
2022/04/19 04:21:58;;;;;;;11.50;5.35;;;8.90;99.90;;;;;;5094422;28;20020;-36
2022/04/19 04:24:25;;;;;;;9.30;5.75;;;8.90;99.90;;;;;;5107738;28;20020;-37
2022/04/19 04:26:50;;;;;;;14.02;5.43;;;8.90;99.90;;;;;;5100989;28;20483;-37
2022/04/19 04:29:16;;;;;;;9.95;5.88;;;8.80;99.90;;;;;;5093666;28;20067;-32
2022/04/19 04:31:42;;;;;;;11.25;5.22;;;8.80;99.90;;;;;;5103159;28;20032;-37
2022/04/19 04:34:07;;;;;;;14.10;5.97;;;8.80;99.90;;;;;;5095087;28;20021;-38
2022/04/19 04:36:33;;;;;;;9.77;4.95;;;8.80;99.90;;;;;;5092376;28;20026;-37
2022/04/19 04:38:59;;;;;;;13.18;5.35;;;8.80;99.90;;;;;;5095045;28;20020;-36
2022/04/19 04:41:25;;;;;;;9.50;5.68;;;8.80;99.90;;;;;;5093759;28;20085;-37
2022/04/19 04:43:51;;;;;;;9.43;5.93;;;8.80;99.90;;;;;;5093747;28;20400;-38
2022/04/19 04:51:45;;;;;;;6.90;4.60;;;8.90;99.90;;;;;;5094348;28;20581;-37
2022/04/19 04:54:10;;;;;;;7.60;4.95;;;9.00;99.90;;;;;;5095361;28;20020;-35
2022/04/19 04:56:36;;;;;;;10.18;5.32;;;9.00;99.90;;;;;;5093344;28;20024;-37
2022/04/19 04:59:02;;;;;;;7.70;4.90;;;9.10;99.90;;;;;;5100758;28;20019;-37
2022/04/19 05:01:27;;;;;;;8.50;4.47;;;9.10;99.90;;;;;;5094351;28;20433;-36
2022/04/19 05:03:53;;;;;;;8.45;5.25;;;9.20;99.90;;;;;;5092273;28;20020;-36
2022/04/19 05:06:37;;;;;;;9.20;5.18;;;9.20;99.90;;;;;;5093832;28;20024;-38
2022/04/19 05:09:03;;;;;;;11.52;5.18;;;9.20;99.90;;;;;;5094282;28;20506;-37
2022/04/19 05:11:28;;;;;;;7.78;4.90;;;9.30;99.90;;;;;;5093772;28;20016;-38
2022/04/19 05:13:55;;;;;;;9.85;5.60;;;9.30;99.90;;;;;;5106252;28;20472;-36
2022/04/19 05:16:20;;;;;;;7.38;4.40;;;9.40;99.90;;;;;;5098998;28;20471;-38
2022/04/19 05:18:46;;;;;;;10.23;4.85;;;9.40;99.90;;;;;;5093554;28;20085;-37
2022/04/19 05:21:11;;;;;;;9.68;4.88;;;9.50;99.90;;;;;;5093904;28;20024;-38
2022/04/19 05:23:37;;;;;;;8.43;5.45;;;9.60;99.90;;;;;;5087557;28;20024;-37
2022/04/19 05:26:03;;;;;;;9.85;5.70;;;9.60;99.90;;;;;;5094186;28;20054;-37
2022/04/19 05:28:29;;;;;;;12.48;4.88;;;9.70;99.90;;;;;;5093156;28;20468;-37
2022/04/19 05:30:55;;;;;;;14.73;5.47;;;9.80;99.90;;;;;;5090480;28;20043;-37
2022/04/19 05:33:21;;;;;;;8.07;4.88;;;9.90;99.90;;;;;;5093450;28;20418;-32
2022/04/19 05:35:46;;;;;;;10.70;5.45;;;9.90;99.90;;;;;;5093551;28;20112;-35
2022/04/19 05:38:12;;;;;;;10.30;5.55;;;9.90;99.90;;;;;;5091822;28;20051;-37
2022/04/19 05:40:41;;;;;;;10.60;5.97;;;9.90;99.90;;;;;;5094013;28;20072;-38
2022/04/19 05:43:07;;;;;;;10.60;5.97;;;10.00;99.90;;;;;;5099065;28;20024;-38
2022/04/19 05:45:33;;;;;;;9.48;5.15;;;10.10;99.80;;;;;;5095765;28;20026;-41
2022/04/19 05:47:58;;;;;;;9.85;5.45;;;10.20;99.30;;;;;;5093544;28;20021;-49
2022/04/19 05:50:24;;;;;;;8.75;5.28;;;10.30;99.30;;;;;;5093307;28;20028;-32
2022/04/19 05:52:50;;;;;;;12.60;5.68;;;10.40;99.10;;;;;;5096933;28;20024;-36
2022/04/19 05:55:15;;;;;;;11.10;5.50;;;10.50;99.00;;;;;;5093038;28;20480;-37
2022/04/19 05:57:41;;;;;;;13.32;5.68;;;10.60;98.90;;;;;;5091402;28;20580;-36
2022/04/19 06:00:07;;;;;;;11.30;5.68;;;10.60;99.10;;;;;;5090180;28;20040;-37
2022/04/19 06:05:17;;;;;;;14.35;6.88;;;10.90;98.00;;;;;;5093037;28;20046;-37
2022/04/19 06:07:47;;;;;;;13.90;5.63;;;11.00;98.30;;;;;;5089646;28;20028;-37
2022/04/19 06:10:14;;;;;;;9.30;5.88;;;11.10;98.30;;;;;;5095759;28;20063;-37
2022/04/19 06:12:40;;;;;;;12.52;6.53;;;11.10;98.50;;;;;;5086376;28;20020;-39
2022/04/19 06:15:07;;;;;;;13.95;6.10;;;11.20;98.30;;;;;;5092549;28;20094;-37
2022/04/19 06:17:35;;;;;;;16.13;5.60;;;11.30;97.70;;;;;;5089771;28;20024;-37
2022/04/19 06:20:01;;;;;;;;;;;11.30;98.00;;;;;;5093123;28;20028;-36
2022/04/19 06:22:27;;;;;;;12.70;6.35;;;11.50;97.20;;;;;;5091155;28;20299;-32
2022/04/19 06:24:55;;;;;;;10.60;5.63;;;11.60;97.50;;;;;;5090773;28;20514;-37
2022/04/19 06:27:21;;;;;;;;;;;11.70;97.60;;;;;;5093498;28;20020;-37
2022/04/19 06:29:46;;;;;;;9.88;5.75;;;11.80;97.30;;;;;;5087128;28;19919;-37
2022/04/19 06:32:13;;;;;;;11.02;6.30;;;12.00;97.50;;;;;;5092161;28;20028;-37
2022/04/19 06:34:42;;;;;;;16.45;7.28;;;12.10;97.70;;;;;;5092375;28;20131;-38
2022/04/19 06:37:07;;;;;;;13.20;6.57;;;12.30;96.90;;;;;;5105331;28;20031;-37
2022/04/19 06:39:33;;;;;;;12.43;6.32;;;12.50;96.60;;;;;;5098610;28;20542;-37
2022/04/19 06:41:58;;;;;;;17.05;6.03;;;12.60;96.80;;;;;;5093498;28;20111;-40
2022/04/19 06:44:24;;;;;;;14.27;6.78;;;12.80;96.40;;;;;;5090280;28;20028;-37
2022/04/19 06:46:50;;;;;;;8.80;5.45;;;13.00;96.30;;;;;;5091636;28;20020;-37
2022/04/19 06:49:16;;;;;;;11.25;6.18;;;13.10;95.40;;;;;;5092601;28;20119;-37
2022/04/19 06:51:42;;;;;;;10.93;5.65;;;13.30;94.90;;;;;;5089273;28;20469;-38
2022/04/19 06:54:09;;;;;;;11.88;6.25;;;13.50;95.00;;;;;;5090797;28;20043;-37
2022/04/19 06:56:35;;;;;;;10.50;5.60;;;13.60;95.50;;;;;;5091759;28;20413;-37
2022/04/19 06:59:00;;;;;;;10.77;5.95;;;13.80;94.60;;;;;;5092262;28;20032;-37
2022/04/19 07:01:27;;;;;;;8.85;5.18;;;14.00;95.00;;;;;;5092624;28;20153;-37
2022/04/19 07:03:53;;;;;;;17.13;5.93;;;14.10;94.50;;;;;;5091269;28;20040;-37
2022/04/19 07:06:22;;;;;;;10.68;5.57;;;14.20;94.50;;;;;;5086772;28;20111;-37
2022/04/19 07:08:48;;;;;;;14.55;6.18;;;14.30;94.20;;;;;;5086543;28;20075;-37
2022/04/19 07:11:15;;;;;;;13.00;5.95;;;14.40;94.20;;;;;;5090081;28;20055;-37
2022/04/19 07:13:43;;;;;;;11.52;6.00;;;14.50;94.10;;;;;;5090690;28;20101;-37
2022/04/19 07:16:08;;;;;;;11.60;5.55;;;14.60;94.40;;;;;;5089260;28;20051;-39
2022/04/19 07:18:34;;;;;;;9.40;5.57;;;14.80;93.90;;;;;;5092356;28;20024;-38
2022/04/19 07:26:45;;;;;;;9.65;5.13;;;15.10;93.30;;;;;;5081147;28;20035;-38
2022/04/19 07:29:17;;;;;;;8.52;4.72;;;15.20;93.00;;;;;;5091763;28;20115;-38
2022/04/19 07:31:45;;;;;;;10.15;5.03;;;15.30;92.50;;;;;;5092048;28;20036;-38
2022/04/19 07:34:12;;;;;;;11.20;4.97;;;15.50;92.80;;;;;;5093486;28;20028;-37
2022/04/19 07:36:39;;;;;;;8.20;4.38;;;15.60;92.60;;;;;;5096175;28;20498;-34
2022/04/19 07:39:09;;;;;;;9.05;4.38;;;15.80;92.00;;;;;;5093396;28;20491;-37
2022/04/19 07:41:35;;;;;;;7.90;4.40;;;16.00;92.60;;;;;;5096039;28;20016;-35
2022/04/19 07:44:01;;;;;;;10.50;5.00;;;16.20;91.70;;;;;;5093811;28;20051;-36
2022/04/19 07:46:28;;;;;;;9.05;4.47;;;16.30;91.70;;;;;;5093754;28;20499;-37
2022/04/19 07:48:54;;;;;;;10.13;3.47;;;16.60;91.70;;;;;;5093550;28;20031;-37
2022/04/19 07:51:20;;;;;;;5.10;3.28;;;16.70;90.60;;;;;;5095258;28;20028;-36
2022/04/19 07:53:45;;;;;;;5.57;3.50;;;16.80;90.90;;;;;;5094878;28;20099;-37
2022/04/19 07:56:11;;;;;;;7.70;3.35;;;17.00;90.30;;;;;;5096099;28;20534;-37
2022/04/19 07:58:37;;;;;;;5.82;3.20;;;17.20;90.10;;;;;;5096086;28;20115;-37
2022/04/19 08:01:03;;;;;;;5.93;3.20;;;17.20;90.30;;;;;;5095281;28;20031;-37
2022/04/19 08:03:29;;;;;;;5.28;3.28;;;17.30;90.40;;;;;;5090038;28;20484;-37
2022/04/19 08:05:55;;;;;;;7.45;4.38;;;17.50;89.70;;;;;;5095643;28;20062;-38
2022/04/19 08:08:21;;;;;;;7.03;2.97;;;17.60;89.80;;;;;;5094398;28;20024;-42
2022/04/19 08:10:50;;;;;;;6.00;3.65;;;17.70;88.60;;;;;;5094237;28;20027;-38
2022/04/19 08:13:16;;;;;;;5.57;3.67;;;17.80;88.20;;;;;;5093377;28;20032;-37
2022/04/19 08:15:42;;;;;;;6.00;3.38;;;17.90;88.40;;;;;;5096060;28;20502;-38
2022/04/19 08:18:11;;;;;;;3.40;2.75;;;18.00;86.90;;;;;;5096265;28;20535;-38
2022/04/19 08:20:37;;;;;;;8.63;3.33;;;18.10;87.80;;;;;;5092798;28;20051;-38
2022/04/19 08:23:03;;;;;;;7.90;3.75;;;18.20;87.60;;;;;;5095272;28;20028;-48
2022/04/19 08:25:29;;;;;;;6.03;2.70;;;18.20;85.30;;;;;;5098263;28;20441;-36
2022/04/19 08:27:55;;;;;;;4.13;2.60;;;18.20;86.10;;;;;;5095235;28;20016;-34
2022/04/19 08:30:21;;;;;;;5.65;3.42;;;18.30;85.50;;;;;;5089519;28;20396;-39
2022/04/19 08:32:47;;;;;;;6.70;2.88;;;18.40;86.20;;;;;;5095796;28;20028;-37
2022/04/19 08:35:13;;;;;;;6.60;3.55;;;18.40;85.10;;;;;;5093184;28;20069;-45
2022/04/19 08:37:39;;;;;;;5.18;3.15;;;18.40;84.20;;;;;;5081582;28;20107;-38
2022/04/19 08:40:07;;;;;;;3.78;2.80;;;18.50;84.60;;;;;;5096030;28;20024;-36
2022/04/19 08:42:34;;;;;;;4.15;2.72;;;18.50;83.70;;;;;;5099469;28;20140;-38
2022/04/19 08:45:01;;;;;;;7.85;2.95;;;18.70;85.20;;;;;;5077022;28;20506;-36
2022/04/19 08:47:30;;;;;;;3.83;2.70;;;18.90;83.60;;;;;;5095737;28;20534;-37
2022/04/19 08:49:56;;;;;;;5.32;2.97;;;19.20;83.70;;;;;;5095499;28;20349;-37
2022/04/19 08:52:22;;;;;;;7.65;3.97;;;19.30;82.60;;;;;;5098221;28;20069;-37
2022/04/19 08:57:38;;;;;;;7.03;3.60;;;19.60;82.70;;;;;;5106295;28;20111;-40
2022/04/19 09:00:05;;;;;;;3.47;2.42;;;19.70;82.40;;;;;;5092475;28;20099;-36
2022/04/19 09:02:32;;;;;;;4.07;3.05;;;19.90;81.10;;;;;;5095949;28;20391;-33
2022/04/19 09:05:17;;;;;;;6.13;3.40;;;20.00;81.90;;;;;;5093425;28;20460;-38
2022/04/19 09:07:47;;;;;;;4.47;2.97;;;20.00;79.20;;;;;;5104579;28;20028;-37
2022/04/19 09:10:15;;;;;;;4.05;2.83;;;20.00;81.30;;;;;;5097397;28;20015;-38
2022/04/19 09:12:59;;;;;;;6.95;3.53;;;20.20;80.10;;;;;;5106995;28;20088;-38
2022/04/19 09:15:44;;;;;;;4.78;2.90;;;20.50;78.90;;;;;;5094314;28;20028;-37
2022/04/19 09:18:14;;;;;;;8.90;3.30;;;20.60;78.00;;;;;;5084941;28;20099;-38
2022/04/19 09:20:40;;;;;;;6.32;3.22;;;20.80;79.10;;;;;;5092180;28;20024;-38
2022/04/19 09:23:08;;;;;;;8.65;3.78;;;21.10;77.80;;;;;;5092887;28;20028;-36
2022/04/19 09:25:35;;;;;;;10.30;3.88;;;21.20;76.00;;;;;;5100594;28;20552;-37
2022/04/19 09:28:02;;;;;;;5.00;3.50;;;21.10;77.30;;;;;;5106941;28;21245;-37
2022/04/19 09:30:31;;;;;;;10.30;4.07;;;21.30;75.20;;;;;;5093473;28;20040;-38
2022/04/19 09:33:14;;;;;;;8.07;3.75;;;21.40;74.60;;;;;;5094583;28;20570;-44
2022/04/19 09:35:58;;;;;;;6.00;3.75;;;21.50;75.50;;;;;;5090313;28;20511;-43
2022/04/19 09:38:46;;;;;;;5.18;3.42;;;21.60;75.40;;;;;;5095951;28;20107;-38
2022/04/19 09:41:32;;;;;;;5.10;3.28;;;21.60;75.80;;;;;;5093748;28;20023;-38
2022/04/19 09:44:08;;;;;;;7.05;3.65;;;21.80;74.40;;;;;;5092157;28;20460;-37
2022/04/19 09:46:36;;;;;;;7.32;4.00;;;21.50;74.20;;;;;;5079752;28;20115;-37
2022/04/19 09:49:02;;;;;;;6.30;3.22;;;21.50;73.60;;;;;;5089760;28;20615;-37
2022/04/19 09:51:32;;;;;;;6.28;3.03;;;21.80;73.50;;;;;;5090235;28;20452;-38
2022/04/19 09:53:58;;;;;;;5.40;3.50;;;22.00;73.40;;;;;;5093021;28;20021;-38
2022/04/19 09:56:33;;;;;;;5.43;3.38;;;22.00;73.10;;;;;;5090435;28;20020;-36
2022/04/19 09:59:02;;;;;;;5.57;3.13;;;22.00;72.30;;;;;;5100754;28;20103;-38
2022/04/19 10:09:37;;;;;;;5.10;2.97;;;22.40;71.20;;;;;;5093162;28;20042;-39
2022/04/19 10:12:07;;;;;;;5.70;3.38;;;22.60;71.20;;;;;;5092392;28;20031;-38
2022/04/19 10:14:34;;;;;;;4.50;2.58;;;22.40;72.30;;;;;;5091499;28;20024;-37
2022/04/19 10:17:01;;;;;;;4.88;2.92;;;22.00;72.20;;;;;;5094489;28;20028;-38
2022/04/19 10:19:28;;;;;;;6.95;2.97;;;22.20;71.70;;;;;;5095502;28;20024;-39
2022/04/19 10:21:55;;;;;;;5.38;3.05;;;22.40;70.60;;;;;;5098468;28;20062;-46
2022/04/19 10:24:21;;;;;;;19.75;3.35;;;22.00;70.50;;;;;;5097103;28;20436;-37
2022/04/19 10:26:48;;;;;;;7.78;4.00;;;21.90;70.70;;;;;;5091265;28;20059;-39
2022/04/19 10:29:29;;;;;;;6.07;3.60;;;22.20;71.10;;;;;;5092620;28;20056;-37
2022/04/19 10:32:01;;;;;;;3.38;2.40;;;22.30;70.90;;;;;;5090438;28;20111;-39
2022/04/19 10:34:33;;;;;;;4.30;2.95;;;22.10;69.80;;;;;;5089302;28;20034;-39
2022/04/19 10:37:21;;;;;;;5.75;3.22;;;22.00;70.00;;;;;;5094182;28;20032;-38
2022/04/19 10:40:06;;;;;;;4.35;2.85;;;22.00;67.80;;;;;;5085037;28;20026;-38
2022/04/19 10:42:33;;;;;;;4.90;3.20;;;21.70;68.60;;;;;;5091856;28;20379;-36
2022/04/19 10:45:13;;;;;;;4.82;2.95;;;21.70;68.40;;;;;;5101298;28;20028;-38
2022/04/19 10:47:54;;;;;;;7.88;3.53;;;21.40;69.70;;;;;;5092533;28;20361;-38
2022/04/19 10:50:32;;;;;;;7.05;3.28;;;21.40;69.50;;;;;;5088759;28;20066;-48
2022/04/19 10:52:59;;;;;;;9.75;3.38;;;21.50;69.60;;;;;;5091371;28;20032;-40
2022/04/19 10:55:27;;;;;;;9.23;3.72;;;21.60;70.00;;;;;;5089456;28;20106;-40
2022/04/19 11:00:41;;;;;;;5.18;3.25;;;21.80;70.80;;;;;;5092549;28;20035;-36
2022/04/19 11:03:12;;;;;;;5.32;3.28;;;21.60;71.00;;;;;;5090682;28;20499;-37
2022/04/19 11:05:43;;;;;;;7.63;3.40;;;21.70;71.50;;;;;;5088691;28;20031;-38
2022/04/19 11:08:31;;;;;;;5.20;2.88;;;21.90;69.80;;;;;;5089988;28;20563;-47
2022/04/19 11:10:57;;;;;;;7.82;3.30;;;21.90;69.80;;;;;;5088872;28;20031;-38
2022/04/19 11:13:27;;;;;;;8.85;3.47;;;21.60;70.30;;;;;;5088489;28;20103;-38
2022/04/19 11:15:59;;;;;;;5.97;2.83;;;21.60;69.50;;;;;;5112114;28;20114;-39
2022/04/19 11:18:58;;;;;;;10.18;3.33;;;21.70;70.30;;;;;;5113426;28;20034;-38
2022/04/19 11:21:58;;;;;;;6.68;3.35;;;21.70;71.20;;;;;;5077050;28;20043;-51
2022/04/19 11:25:03;;;;;;;8.90;3.88;;;21.80;71.20;;;;;;5094144;28;20047;-37
2022/04/19 11:27:56;;;;;;;7.45;3.25;;;21.80;70.70;;;;;;5094389;28;20028;-40
2022/04/19 11:30:23;;;;;;;8.98;3.75;;;21.80;71.20;;;;;;5095885;28;20079;-36
2022/04/19 11:32:59;;;;;;;8.77;3.38;;;21.90;70.60;;;;;;5091925;28;20024;-38
2022/04/19 11:35:26;;;;;;;5.70;2.80;;;22.00;70.50;;;;;;5086473;28;20487;-38
2022/04/19 11:37:52;;;;;;;8.65;2.42;;;22.00;70.40;;;;;;5094011;28;20114;-39
2022/04/19 11:48:50;;;;;;;9.45;3.15;;;21.30;72.20;;;;;;5096663;28;20043;-38
2022/04/19 11:51:20;;;;;;;5.05;3.25;;;21.50;72.90;;;;;;5094443;28;20036;-38
2022/04/19 11:53:46;;;;;;;7.55;3.00;;;21.60;73.20;;;;;;5095968;28;20028;-37
2022/04/19 11:56:14;;;;;;;8.15;3.30;;;21.70;71.20;;;;;;5096511;28;20035;-37
2022/04/19 11:58:43;;;;;;;5.78;3.33;;;21.80;71.90;;;;;;5084465;28;20029;-38
2022/04/19 12:01:10;;;;;;;7.30;3.08;;;21.60;73.70;;;;;;5088916;28;20056;-37
2022/04/19 12:03:39;;;;;;;4.50;2.83;;;21.40;73.60;;;;;;5092507;28;20028;-37
2022/04/19 12:06:09;;;;;;;6.57;3.15;;;21.50;73.20;;;;;;5089628;28;20038;-38
2022/04/19 12:08:43;;;;;;;5.88;3.13;;;21.20;75.40;;;;;;5095863;28;20024;-38
2022/04/19 12:11:11;;;;;;;3.80;2.22;;;21.30;74.00;;;;;;5096074;28;20070;-37
2022/04/19 12:13:37;;;;;;;;;;;21.50;74.30;;;;;;5096720;28;20487;-39
2022/04/19 12:16:04;;;;;;;4.03;2.70;;;21.50;71.90;;;;;;5093855;28;19908;-38
2022/04/19 12:18:34;;;;;;;5.32;2.60;;;21.30;71.90;;;;;;5095950;28;20028;-38
2022/04/19 12:21:01;;;;;;;5.20;2.38;;;21.20;73.10;;;;;;5095489;28;20543;-38
2022/04/19 12:23:27;;;;;;;4.67;2.57;;;21.20;74.60;;;;;;5095954;28;20028;-41
2022/04/19 12:25:59;;;;;;;3.95;2.53;;;21.40;74.30;;;;;;5092972;28;20399;-36
2022/04/19 12:28:42;;;;;;;3.42;2.55;;;21.70;72.40;;;;;;5092749;28;20115;-45
2022/04/19 12:31:26;;;;;;;4.03;2.58;;;21.70;73.80;;;;;;5092097;28;20119;-49
2022/04/19 12:33:53;;;;;;;8.32;3.50;;;21.70;73.40;;;;;;5093249;28;20383;-39
2022/04/19 12:36:22;;;;;;;;;;;21.80;73.70;;;;;;5093016;28;20089;-41
2022/04/19 12:39:01;;;;;;;6.32;3.15;;;21.90;72.60;;;;;;5093025;28;19916;-36
2022/04/19 12:42:03;;;;;;;4.40;2.72;;;22.00;73.20;;;;;;5090784;28;20020;-38
2022/04/19 12:44:28;;;;;;;6.10;3.35;;;21.90;75.10;;;;;;5090746;28;20032;-37
2022/04/19 12:46:55;;;;;;;5.80;2.88;;;22.00;73.30;;;;;;5088676;28;20026;-38
2022/04/19 12:49:23;;;;;;;6.78;3.38;;;22.00;72.60;;;;;;5090010;28;20467;-37
2022/04/19 12:52:03;;;;;;;6.55;3.25;;;21.80;72.90;;;;;;5083663;28;20027;-47
2022/04/19 12:54:29;;;;;;;10.00;3.33;;;21.80;74.20;;;;;;5084139;28;20360;-37
2022/04/19 12:57:24;;;;;;;4.28;2.80;;;21.80;73.30;;;;;;5090109;28;20068;-38
2022/04/19 12:59:50;;;;;;;4.75;2.90;;;21.60;73.60;;;;;;5086772;28;20040;-38
2022/04/19 13:02:18;;;;;;;4.65;3.03;;;21.80;74.00;;;;;;5094276;28;20020;-38
2022/04/19 13:04:48;;;;;;;7.10;3.20;;;21.90;73.50;;;;;;5093663;28;20039;-46
2022/04/19 13:12:44;;;;;;;7.10;3.90;;;21.90;73.60;;;;;;5087060;28;20102;-37
2022/04/19 13:15:10;;;;;;;7.95;3.50;;;21.90;73.30;;;;;;5093648;28;20479;-32
2022/04/19 13:17:41;;;;;;;8.05;3.75;;;21.90;73.70;;;;;;5088667;28;20036;-36
2022/04/19 13:20:08;;;;;;;6.05;2.95;;;21.80;74.00;;;;;;5093386;28;20119;-37
2022/04/19 13:22:36;;;;;;;7.95;3.40;;;21.80;72.30;;;;;;5076722;28;20474;-38
2022/04/19 13:25:03;;;;;;;5.90;3.10;;;21.90;73.10;;;;;;5093203;28;20111;-38
2022/04/19 13:27:33;;;;;;;7.35;3.17;;;22.00;73.00;;;;;;5094550;28;20020;-38
2022/04/19 13:30:00;;;;;;;6.43;3.42;;;22.00;73.90;;;;;;5094380;28;20036;-37
2022/04/19 13:32:26;;;;;;;7.68;3.38;;;22.00;73.30;;;;;;5093738;28;20499;-37
2022/04/19 13:34:52;;;;;;;5.38;3.15;;;22.00;73.80;;;;;;5094757;28;20024;-37
2022/04/19 13:38:23;;;;;;;6.38;3.42;;;22.10;74.00;;;;;;5094688;28;20515;-36
2022/04/19 13:40:04;;;;;;;6.53;3.92;;;22.20;73.80;;;;;;5094102;28;20040;-37
2022/04/19 13:42:29;;;;;;;11.65;4.07;;;22.20;75.20;;;;;;5094891;28;20055;-44
2022/04/19 13:44:55;;;;;;;5.68;3.50;;;22.10;74.60;;;;;;5094282;28;20024;-38